createdAt,value
2018-04-02T00:01:42.812Z,82.10
2018-04-02T00:04:10.416Z,82.50
2018-04-02T00:06:38.048Z,80.30
2018-04-02T00:09:05.652Z,79.80
2018-04-02T00:11:33.270Z,80.20
2018-04-02T00:14:00.904Z,80.10
2018-04-02T00:16:28.508Z,81.00
2018-04-02T00:18:56.896Z,80.30
2018-04-02T00:21:25.284Z,80.50
2018-04-02T00:23:53.653Z,80.80
2018-04-02T00:26:22.016Z,81.50
2018-04-02T00:28:49.638Z,81.30
2018-04-02T00:31:17.257Z,82.40
2018-04-02T00:33:44.879Z,82.80
2018-04-02T00:36:12.528Z,82.10
2018-04-02T00:38:40.138Z,82.00
2018-04-02T00:41:08.504Z,82.00
2018-04-02T00:43:36.958Z,82.70
2018-04-02T00:46:04.539Z,82.60
2018-04-02T00:48:32.140Z,83.60
2018-04-02T00:50:59.767Z,83.10
2018-04-02T00:53:28.154Z,83.50
2018-04-02T00:55:56.536Z,83.60
2018-04-02T00:58:24.944Z,84.00
2018-04-02T01:00:52.547Z,84.70
2018-04-02T01:03:20.161Z,84.00
2018-04-02T01:05:47.807Z,84.50
2018-04-02T01:08:15.428Z,84.10
2018-04-02T01:10:43.032Z,84.70
2018-04-02T01:13:10.658Z,85.20
2018-04-02T01:15:38.275Z,85.70
2018-04-02T01:18:05.892Z,85.00
2018-04-02T01:20:34.276Z,84.60
2018-04-02T01:23:02.660Z,83.00
2018-04-02T01:25:30.293Z,83.00
2018-04-02T01:27:57.910Z,83.10
2018-04-02T01:30:26.287Z,85.70
2018-04-02T01:32:53.883Z,85.70
2018-04-02T01:35:21.500Z,85.90
2018-04-02T01:37:49.864Z,83.30
2018-04-02T01:40:17.471Z,83.30
2018-04-02T01:42:45.089Z,83.70
2018-04-02T01:45:12.695Z,84.40
2018-04-02T01:47:40.303Z,86.30
2018-04-02T01:50:08.006Z,85.40
2018-04-02T01:52:35.588Z,86.10
2018-04-02T01:55:03.213Z,85.80
2018-04-02T01:57:30.852Z,85.70
2018-04-02T01:59:58.460Z,85.60
2018-04-02T02:02:26.080Z,85.30
2018-04-02T02:04:53.700Z,86.20
2018-04-02T02:07:21.313Z,86.50
2018-04-02T02:09:48.948Z,87.10
2018-04-02T02:12:16.595Z,86.70
2018-04-02T02:14:44.196Z,86.00
2018-04-02T02:17:11.800Z,86.20
2018-04-02T02:19:39.427Z,86.50
2018-04-02T02:22:07.032Z,87.50
2018-04-02T02:24:34.644Z,85.90
2018-04-02T02:27:02.270Z,85.70
2018-04-02T02:29:29.884Z,87.00
2018-04-02T02:31:57.497Z,87.40
2018-04-02T02:34:25.120Z,88.30
2018-04-02T02:36:52.729Z,88.60
2018-04-02T02:39:20.332Z,89.60
2018-04-02T02:41:47.948Z,89.90
2018-04-02T02:44:15.551Z,89.50
2018-04-02T02:46:43.159Z,88.00
2018-04-02T02:49:10.815Z,89.90
2018-04-02T02:51:38.432Z,90.10
2018-04-02T02:54:06.057Z,90.10
2018-04-02T02:56:33.679Z,89.80
2018-04-02T02:59:02.048Z,89.40
2018-04-02T03:01:30.420Z,90.40
2018-04-02T03:03:58.049Z,90.40
2018-04-02T03:06:25.657Z,90.90
2018-04-02T03:08:53.280Z,90.40
2018-04-02T03:11:20.952Z,90.30
2018-04-02T03:13:48.569Z,90.30
2018-04-02T03:16:16.172Z,90.60
2018-04-02T03:18:43.825Z,91.10
2018-04-02T03:21:11.447Z,91.50
2018-04-02T03:23:39.051Z,91.30
2018-04-02T03:26:06.676Z,91.40
2018-04-02T03:28:34.288Z,91.10
2018-04-02T03:31:01.908Z,91.30
2018-04-02T03:33:29.552Z,92.10
2018-04-02T03:35:57.168Z,92.30
2018-04-02T03:38:24.782Z,91.60
2018-04-02T03:40:52.399Z,90.70
2018-04-02T03:43:20.011Z,91.30
2018-04-02T03:45:47.608Z,91.80
2018-04-02T03:48:15.244Z,91.70
2018-04-02T03:50:42.843Z,92.00
2018-04-02T03:53:10.450Z,91.10
2018-04-02T03:55:38.072Z,91.80
2018-04-02T03:58:06.457Z,92.50
2018-04-02T04:00:34.061Z,92.40
2018-04-02T04:03:01.711Z,91.70
2018-04-02T04:05:29.328Z,91.80
2018-04-02T04:07:57.695Z,91.60
2018-04-02T04:10:26.081Z,91.50
2018-04-02T04:12:54.452Z,91.60
2018-04-02T04:15:22.852Z,91.60
2018-04-02T04:17:50.484Z,91.60
2018-04-02T04:20:18.095Z,94.00
2018-04-02T04:22:45.701Z,92.20
2018-04-02T04:25:13.357Z,92.80
2018-04-02T04:27:40.965Z,92.80
2018-04-02T04:30:08.581Z,92.80
2018-04-02T04:32:36.242Z,93.50
2018-04-02T04:35:03.869Z,93.20
2018-04-02T04:37:31.479Z,93.20
2018-04-02T04:39:59.892Z,92.90
2018-04-02T04:42:27.512Z,92.90
2018-04-02T04:44:55.131Z,93.40
2018-04-02T04:47:23.894Z,92.90
2018-04-02T04:52:20.453Z,93.10
2018-04-02T04:54:48.092Z,93.40
2018-04-02T04:57:15.695Z,93.60
2018-04-02T04:59:43.307Z,93.00
2018-04-02T05:02:11.696Z,93.40
2018-04-02T05:04:39.300Z,93.50
2018-04-02T05:07:06.912Z,93.30
2018-04-02T05:09:34.533Z,93.40
2018-04-02T05:12:02.136Z,93.70
2018-04-02T05:14:29.743Z,93.60
2018-04-02T05:16:57.363Z,93.40
2018-04-02T05:19:24.986Z,93.10
2018-04-02T05:21:52.597Z,92.60
2018-04-02T05:24:20.216Z,92.60
2018-04-02T05:26:48.593Z,92.50
2018-04-02T05:29:16.218Z,92.50
2018-04-02T05:31:43.876Z,92.60
2018-04-02T05:34:11.488Z,92.30
2018-04-02T05:36:39.855Z,91.50
2018-04-02T05:39:08.240Z,91.20
2018-04-02T05:41:36.616Z,91.30
2018-04-02T05:44:04.220Z,91.30
2018-04-02T05:46:31.835Z,90.70
2018-04-02T05:49:00.222Z,88.20
2018-04-02T05:51:27.848Z,88.20
2018-04-02T05:53:55.556Z,87.10
2018-04-02T05:56:23.932Z,86.50
2018-04-02T05:58:51.542Z,86.50
2018-04-02T06:01:19.161Z,85.30
2018-04-02T06:03:46.780Z,84.60
2018-04-02T06:06:14.388Z,84.90
2018-04-02T06:08:42.000Z,85.40
2018-04-02T06:11:09.616Z,83.70
2018-04-02T06:13:37.238Z,84.00
2018-04-02T06:16:05.682Z,82.40
2018-04-02T06:18:33.272Z,82.40
2018-04-02T06:21:00.885Z,82.30
2018-04-02T06:23:28.500Z,81.70
2018-04-02T06:25:56.126Z,80.90
2018-04-02T06:28:23.761Z,81.10
2018-04-02T06:30:51.412Z,80.20
2018-04-02T06:33:19.024Z,79.40
2018-04-02T06:35:46.641Z,79.10
2018-04-02T06:38:14.261Z,78.80
2018-04-02T06:40:41.884Z,78.90
2018-04-02T06:43:09.496Z,77.70
2018-04-02T06:45:37.120Z,75.80
2018-04-02T06:48:04.732Z,76.70
2018-04-02T06:50:32.339Z,77.40
2018-04-02T06:52:59.960Z,75.70
2018-04-02T06:55:27.588Z,75.00
2018-04-02T06:57:55.203Z,74.10
2018-04-02T07:00:22.824Z,72.80
2018-04-02T07:02:50.428Z,74.00
2018-04-02T07:05:18.034Z,73.60
2018-04-02T07:07:45.653Z,72.90
2018-04-02T07:10:13.255Z,72.80
2018-04-02T07:12:41.628Z,71.00
2018-04-02T07:15:09.238Z,71.00
2018-04-02T07:17:36.846Z,69.90
2018-04-02T07:20:04.467Z,67.10
2018-04-02T07:22:32.152Z,69.40
2018-04-02T07:24:59.751Z,67.30
2018-04-02T07:27:27.380Z,67.20
2018-04-02T07:29:54.993Z,65.40
2018-04-02T07:32:22.592Z,57.00
2018-04-02T07:34:50.216Z,61.50
2018-04-02T07:37:17.875Z,57.10
2018-04-02T07:39:45.507Z,58.00
2018-04-02T07:42:13.883Z,58.60
2018-04-02T07:44:42.276Z,58.30
2018-04-02T07:47:09.880Z,58.30
2018-04-02T07:49:37.480Z,55.10
2018-04-02T07:52:05.866Z,52.60
2018-04-02T07:54:33.496Z,52.60
2018-04-02T07:57:01.096Z,52.90
2018-04-02T07:59:28.713Z,51.60
2018-04-02T08:01:56.321Z,53.10
2018-04-02T08:04:23.927Z,53.50
2018-04-02T08:06:51.560Z,51.50
2018-04-02T08:09:19.179Z,51.40
2018-04-02T08:11:47.549Z,53.00
2018-04-02T08:14:15.928Z,51.10
2018-04-02T08:16:44.291Z,51.70
2018-04-02T08:19:11.886Z,51.70
2018-04-02T08:21:39.503Z,50.10
2018-04-02T08:24:07.108Z,49.60
2018-04-02T08:26:34.770Z,49.70
2018-04-02T08:29:02.427Z,50.20
2018-04-02T08:31:30.027Z,52.00
2018-04-02T08:33:57.649Z,49.40
2018-04-02T08:36:25.253Z,49.10
2018-04-02T08:38:52.922Z,49.20
2018-04-02T08:41:20.483Z,46.70
2018-04-02T08:43:48.112Z,43.50
2018-04-02T08:46:16.475Z,37.00
2018-04-02T08:48:44.079Z,37.10
2018-04-02T08:51:11.715Z,36.50
2018-04-02T08:53:39.316Z,34.10
2018-04-02T08:56:06.913Z,33.20
2018-04-02T08:58:34.529Z,36.00
2018-04-02T09:01:02.127Z,32.90
2018-04-02T09:03:29.732Z,33.00
2018-04-02T09:05:57.340Z,35.90
2018-04-02T09:08:24.940Z,31.00
2018-04-02T09:10:52.555Z,34.20
2018-04-02T09:13:20.220Z,34.00
2018-04-02T09:15:47.814Z,32.90
2018-04-02T09:18:15.416Z,33.60
2018-04-02T09:20:43.027Z,33.50
2018-04-02T09:23:10.630Z,32.00
2018-04-02T09:25:38.225Z,30.80
2018-04-02T09:28:05.831Z,31.40
2018-04-02T09:30:33.439Z,32.30
2018-04-02T09:33:01.038Z,28.50
2018-04-02T09:35:28.651Z,28.80
2018-04-02T09:37:56.303Z,29.30
2018-04-02T09:40:24.676Z,29.50
2018-04-02T09:42:52.288Z,29.50
2018-04-02T09:45:19.889Z,27.50
2018-04-02T09:47:47.496Z,28.00
2018-04-02T09:50:15.891Z,30.40
2018-04-02T09:52:43.489Z,30.30
2018-04-02T09:55:11.084Z,34.80
2018-04-02T09:57:38.704Z,37.00
2018-04-02T10:00:06.303Z,38.00
2018-04-02T10:02:36.579Z,40.70
2018-04-02T10:05:06.147Z,40.70
2018-04-02T10:07:33.641Z,41.50
2018-04-02T10:10:01.287Z,43.10
2018-04-02T10:12:28.892Z,43.00
2018-04-02T10:14:57.260Z,45.70
2018-04-02T10:17:25.671Z,45.00
2018-04-02T10:19:53.316Z,45.10
2018-04-02T10:22:20.915Z,44.90
2018-04-02T10:24:48.518Z,45.30
2018-04-02T10:27:16.157Z,44.30
2018-04-02T10:29:43.808Z,45.80
2018-04-02T10:32:11.450Z,42.70
2018-04-02T10:34:39.803Z,44.00
2018-04-02T10:37:08.188Z,45.10
2018-04-02T10:39:36.554Z,45.20
2018-04-02T10:42:04.928Z,43.90
2018-04-02T10:44:33.319Z,43.90
2018-04-02T10:47:01.681Z,43.30
2018-04-02T10:49:30.105Z,44.00
2018-04-02T10:51:57.707Z,43.90
2018-04-02T10:54:25.313Z,43.70
2018-04-02T10:56:52.964Z,44.40
2018-04-02T10:59:21.345Z,43.00
2018-04-02T11:01:50.078Z,43.00
2018-04-02T11:04:17.688Z,43.30
2018-04-02T11:06:45.320Z,44.00
2018-04-02T11:09:12.915Z,41.60
2018-04-02T11:11:40.528Z,43.20
2018-04-02T11:14:08.154Z,42.10
2018-04-02T11:16:35.784Z,40.40
2018-04-02T11:19:03.431Z,41.10
2018-04-02T11:21:31.822Z,40.70
2018-04-02T11:24:00.205Z,41.60
2018-04-02T11:26:28.600Z,41.70
2018-04-02T11:28:56.195Z,41.60
2018-04-02T11:31:23.788Z,44.30
2018-04-02T11:33:52.165Z,43.90
2018-04-02T11:36:20.528Z,44.70
2018-04-02T11:38:48.123Z,44.70
2018-04-02T11:41:15.724Z,42.90
2018-04-02T11:43:43.332Z,43.20
2018-04-02T11:46:11.691Z,37.90
2018-04-02T11:48:39.303Z,37.90
2018-04-02T11:51:06.939Z,36.70
2018-04-02T11:53:34.533Z,37.30
2018-04-02T11:56:02.173Z,35.60
2018-04-02T11:58:29.769Z,37.60
2018-04-02T12:00:57.363Z,36.50
2018-04-02T12:03:24.977Z,37.40
2018-04-02T12:05:52.591Z,38.60
2018-04-02T12:08:20.212Z,39.70
2018-04-02T12:10:47.831Z,39.30
2018-04-02T12:13:15.427Z,37.70
2018-04-02T12:15:43.036Z,39.40
2018-04-02T12:18:10.652Z,35.50
2018-04-02T12:20:38.272Z,37.20
2018-04-02T12:23:05.903Z,37.10
2018-04-02T12:25:33.520Z,34.90
2018-04-02T12:28:01.115Z,33.70
2018-04-02T12:30:28.715Z,31.70
2018-04-02T12:32:56.331Z,30.90
2018-04-02T12:35:23.942Z,31.70
2018-04-02T12:37:51.548Z,33.00
2018-04-02T12:40:19.157Z,31.20
2018-04-02T12:42:46.764Z,27.90
2018-04-02T12:45:15.162Z,27.50
2018-04-02T12:47:43.629Z,26.80
2018-04-02T12:50:11.331Z,27.20
2018-04-02T12:52:39.704Z,24.20
2018-04-02T12:55:08.105Z,25.40
2018-04-02T12:57:35.749Z,25.40
2018-04-02T13:00:04.128Z,26.70
2018-04-02T13:02:31.743Z,26.60
2018-04-02T13:04:59.348Z,24.50
2018-04-02T13:07:26.957Z,24.20
2018-04-02T13:09:54.587Z,25.80
2018-04-02T13:12:22.196Z,26.40
2018-04-02T13:14:49.821Z,26.20
2018-04-02T13:17:17.440Z,25.30
2018-04-02T13:19:45.812Z,24.40
2018-04-02T13:22:14.193Z,23.80
2018-04-02T13:24:42.664Z,23.10
2018-04-02T13:27:10.261Z,23.10
2018-04-02T13:29:37.877Z,21.80
2018-04-02T13:32:05.532Z,23.90
2018-04-02T13:34:33.152Z,24.60
2018-04-02T13:37:00.761Z,24.20
2018-04-02T13:39:28.393Z,19.00
2018-04-02T13:41:56.016Z,19.40
2018-04-02T13:44:23.622Z,19.40
2018-04-02T13:46:51.250Z,20.70
2018-04-02T13:49:18.865Z,22.00
2018-04-02T13:51:46.480Z,21.50
2018-04-02T13:54:14.141Z,23.00
2018-04-02T13:56:41.767Z,22.50
2018-04-02T13:59:10.168Z,23.30
2018-04-02T14:01:37.790Z,23.20
2018-04-02T14:04:06.176Z,24.10
2018-04-02T14:06:34.552Z,23.70
2018-04-02T14:09:02.934Z,23.80
2018-04-02T14:11:31.314Z,24.60
2018-04-02T14:13:59.712Z,24.80
2018-04-02T14:16:27.323Z,24.70
2018-04-02T14:18:54.945Z,22.80
2018-04-02T14:21:22.555Z,22.30
2018-04-02T14:23:50.212Z,22.60
2018-04-02T14:26:17.817Z,22.20
2018-04-02T14:28:45.418Z,20.80
2018-04-02T14:31:13.033Z,18.90
2018-04-02T14:33:40.644Z,19.60
2018-04-02T14:36:08.296Z,20.50
2018-04-02T14:38:35.924Z,20.20
2018-04-02T14:41:03.531Z,20.10
2018-04-02T14:43:31.140Z,20.40
2018-04-02T14:45:58.750Z,21.80
2018-04-02T14:48:26.363Z,22.70
2018-04-02T14:50:53.972Z,26.00
2018-04-02T14:53:21.612Z,24.20
2018-04-02T14:55:49.217Z,26.10
2018-04-02T14:58:16.821Z,24.70
2018-04-02T15:00:44.442Z,25.70
2018-04-02T15:03:12.818Z,25.40
2018-04-02T15:05:41.177Z,26.60
2018-04-02T15:08:08.801Z,26.70
2018-04-02T15:10:36.414Z,27.40
2018-04-02T15:13:04.029Z,28.60
2018-04-02T15:15:31.640Z,28.10
2018-04-02T15:18:00.014Z,27.60
2018-04-02T15:20:28.492Z,27.70
2018-04-02T15:22:56.911Z,28.70
2018-04-02T15:25:24.511Z,28.60
2018-04-02T15:27:52.115Z,28.20
2018-04-02T15:30:19.744Z,27.20
2018-04-02T15:32:47.344Z,27.50
2018-04-02T15:35:14.952Z,28.50
2018-04-02T15:37:42.572Z,29.60
2018-04-02T15:40:10.168Z,28.50
2018-04-02T15:42:37.777Z,28.20
2018-04-02T15:45:05.423Z,28.00
2018-04-02T15:47:33.023Z,27.70
2018-04-02T15:50:00.636Z,28.00
2018-04-02T15:52:28.252Z,28.80
2018-04-02T15:54:55.848Z,28.60
2018-04-02T15:57:23.459Z,28.60
2018-04-02T15:59:51.122Z,27.50
2018-04-02T16:02:18.709Z,28.30
2018-04-02T16:04:46.312Z,28.70
2018-04-02T16:07:13.919Z,27.30
2018-04-02T16:09:41.528Z,30.00
2018-04-02T16:12:09.180Z,29.80
2018-04-02T16:14:37.568Z,30.30
2018-04-02T16:17:05.962Z,31.60
2018-04-02T16:19:33.584Z,31.10
2018-04-02T16:22:01.644Z,32.60
2018-04-02T16:24:29.282Z,30.00
2018-04-02T16:26:56.884Z,29.40
2018-04-02T16:29:25.284Z,30.80
2018-04-02T16:31:52.883Z,30.80
2018-04-02T16:34:20.501Z,31.20
2018-04-02T16:36:48.108Z,35.90
2018-04-02T16:39:15.716Z,35.40
2018-04-02T16:41:44.095Z,33.10
2018-04-02T16:44:11.744Z,33.00
2018-04-02T16:46:39.391Z,35.50
2018-04-02T16:49:06.987Z,38.10
2018-04-02T16:51:34.623Z,39.00
2018-04-02T16:54:03.012Z,41.30
2018-04-02T16:56:31.395Z,41.10
2018-04-02T16:58:59.795Z,42.70
2018-04-02T17:01:27.408Z,42.80
2018-04-02T17:03:55.040Z,43.20
2018-04-02T17:06:22.664Z,45.00
2018-04-02T17:08:50.272Z,46.00
2018-04-02T17:11:17.884Z,48.40
2018-04-02T17:13:45.529Z,48.50
2018-04-02T17:16:13.164Z,49.90
2018-04-02T17:18:40.765Z,51.10
2018-04-02T17:21:08.399Z,52.10
2018-04-02T17:23:36.772Z,54.10
2018-04-02T17:26:04.383Z,54.00
2018-04-02T17:28:32.057Z,54.40
2018-04-02T17:30:59.672Z,55.00
2018-04-02T17:33:27.303Z,56.10
2018-04-02T17:35:55.712Z,56.90
2018-04-02T17:38:24.084Z,58.30
2018-04-02T17:40:52.512Z,58.80
2018-04-02T17:43:20.101Z,58.80
2018-04-02T17:45:47.717Z,58.90
2018-04-02T17:48:15.308Z,59.20
2018-04-02T17:50:42.968Z,59.40
2018-04-02T17:53:10.560Z,60.30
2018-04-02T17:55:38.946Z,61.70
2018-04-02T17:58:07.356Z,62.80
2018-04-02T18:00:34.969Z,62.70
2018-04-02T18:03:02.580Z,62.60
2018-04-02T18:05:30.204Z,64.10
2018-04-02T18:07:58.608Z,64.90
2018-04-02T18:10:26.240Z,64.90
2018-04-02T18:12:54.639Z,67.10
2018-04-02T18:15:22.256Z,67.10
2018-04-02T18:17:49.869Z,68.10
2018-04-02T18:20:17.528Z,68.00
2018-04-02T18:22:45.144Z,69.20
2018-04-02T18:25:12.778Z,69.40
2018-04-02T18:27:40.446Z,70.30
2018-04-02T18:30:08.062Z,70.40
2018-04-02T18:32:35.693Z,70.60
2018-04-02T18:35:03.327Z,71.20
2018-04-02T18:37:30.952Z,72.10
2018-04-02T18:39:58.568Z,73.00
2018-04-02T18:42:26.230Z,73.30
2018-04-02T18:44:53.889Z,74.10
2018-04-02T18:47:23.601Z,74.90
2018-04-02T18:49:51.270Z,74.80
2018-04-02T18:52:18.893Z,74.80
2018-04-02T18:54:46.532Z,75.90
2018-04-02T18:57:14.232Z,76.40
2018-04-02T18:59:41.854Z,76.70
2018-04-02T19:02:09.516Z,77.10
2018-04-02T19:04:37.184Z,77.60
2018-04-02T19:07:04.800Z,77.60
2018-04-02T19:09:32.413Z,77.70
2018-04-02T19:12:00.812Z,78.40
2018-04-02T19:14:28.490Z,78.30
2018-04-02T19:16:56.088Z,78.50
2018-04-02T19:19:23.708Z,79.40
2018-04-02T19:21:51.324Z,80.10
2018-04-02T19:24:18.954Z,80.30
2018-04-02T19:26:46.583Z,80.90
2018-04-02T19:29:14.188Z,80.30
2018-04-02T19:31:41.792Z,80.10
2018-04-02T19:34:09.446Z,80.00
2018-04-02T19:36:37.062Z,80.20
2018-04-02T19:39:06.208Z,80.90
2018-04-02T19:41:33.827Z,80.80
2018-04-02T19:44:01.465Z,81.10
2018-04-02T19:46:29.851Z,81.60
2018-04-02T19:48:58.240Z,82.40
2018-04-02T19:51:25.908Z,82.40
2018-04-02T19:53:53.539Z,82.20
2018-04-02T19:56:21.184Z,83.20
2018-04-02T19:58:48.800Z,83.80
2018-04-02T20:01:16.408Z,83.20
2018-04-02T20:03:44.053Z,83.30
2018-04-02T20:06:11.692Z,83.10
2018-04-02T20:08:39.308Z,83.60
2018-04-02T20:11:06.944Z,84.20
2018-04-02T20:13:34.612Z,83.40
2018-04-02T20:16:02.229Z,83.30
2018-04-02T20:18:29.869Z,83.30
2018-04-02T20:20:58.248Z,84.70
2018-04-02T20:23:26.669Z,85.00
2018-04-02T20:25:54.316Z,85.00
2018-04-02T20:28:21.928Z,85.10
2018-04-02T20:30:49.532Z,85.00
2018-04-02T20:33:17.204Z,84.70
2018-04-02T20:35:44.863Z,83.50
2018-04-02T20:38:12.512Z,84.60
2018-04-02T20:40:40.209Z,85.10
2018-04-02T20:43:07.830Z,84.50
2018-04-02T20:45:35.519Z,85.30
2018-04-02T20:48:03.212Z,86.20
2018-04-02T20:50:30.828Z,86.80
2018-04-02T20:52:58.443Z,86.50
2018-04-02T20:55:26.062Z,86.40
2018-04-02T20:57:53.676Z,86.30
2018-04-02T21:00:21.285Z,86.50
2018-04-02T21:02:48.916Z,87.50
2018-04-02T21:05:16.519Z,86.20
2018-04-02T21:07:44.124Z,86.00
2018-04-02T21:10:11.888Z,86.50
2018-04-02T21:12:40.265Z,85.90
2018-04-02T21:15:08.651Z,85.00
2018-04-02T21:17:36.300Z,84.90
2018-04-02T21:20:04.708Z,84.70
2018-04-02T21:22:32.321Z,84.70
2018-04-02T21:24:59.946Z,85.40
2018-04-02T21:27:27.559Z,84.20
2018-04-02T21:29:55.941Z,85.10
2018-04-02T21:32:23.593Z,85.10
2018-04-02T21:34:51.205Z,84.30
2018-04-02T21:37:18.848Z,93.20
2018-04-02T21:39:46.460Z,83.00
2018-04-02T21:42:14.102Z,84.00
2018-04-02T21:44:41.712Z,84.60
2018-04-02T21:47:09.336Z,84.70
2018-04-02T21:49:36.948Z,85.60
2018-04-02T21:52:04.568Z,85.30
2018-04-02T21:54:32.197Z,85.30
2018-04-02T21:57:00.572Z,85.60
2018-04-02T21:59:28.176Z,86.30
2018-04-02T22:01:56.560Z,86.00
2018-04-02T22:04:24.936Z,85.90
2018-04-02T22:07:05.308Z,85.90
2018-04-02T22:09:32.912Z,85.90
2018-04-02T22:12:00.524Z,84.80
2018-04-02T22:14:28.939Z,84.90
2018-04-02T22:16:56.549Z,84.90
2018-04-02T22:19:24.932Z,83.80
2018-04-02T22:21:53.320Z,83.90
2018-04-02T22:24:20.928Z,83.90
2018-04-02T22:26:48.531Z,83.20
2018-04-02T22:29:16.156Z,83.90
2018-04-02T22:31:43.760Z,84.60
2018-04-02T22:34:11.368Z,83.60
2018-04-02T22:36:39.036Z,82.90
2018-04-02T22:39:07.526Z,83.30
2018-04-02T22:41:35.152Z,83.50
2018-04-02T22:44:02.808Z,83.70
2018-04-02T22:46:30.426Z,83.50
2018-04-02T22:48:58.041Z,82.80
2018-04-02T22:51:25.672Z,83.00
2018-04-02T22:53:53.292Z,83.30
2018-04-02T22:56:20.912Z,83.10
2018-04-02T22:58:48.586Z,83.30
2018-04-02T23:01:16.188Z,83.60
2018-04-02T23:03:43.822Z,83.30
2018-04-02T23:06:11.469Z,83.10
2018-04-02T23:08:39.076Z,83.50
2018-04-02T23:11:07.448Z,83.00
2018-04-02T23:13:35.066Z,83.10
2018-04-02T23:16:02.669Z,83.50
2018-04-02T23:18:30.276Z,84.00
2018-04-02T23:20:57.881Z,86.80
2018-04-02T23:23:25.506Z,84.60
2018-04-02T23:25:53.108Z,85.30
2018-04-02T23:28:20.731Z,85.00
2018-04-02T23:30:48.332Z,86.20
2018-04-02T23:33:15.955Z,86.00
2018-04-02T23:35:43.584Z,95.20
2018-04-02T23:38:11.188Z,94.00
2018-04-02T23:40:38.783Z,98.00
2018-04-02T23:43:07.180Z,86.60
2018-04-02T23:45:34.801Z,86.60
2018-04-02T23:48:02.407Z,86.80
2018-04-02T23:50:30.020Z,86.70
2018-04-02T23:52:57.639Z,86.10
2018-04-02T23:55:25.243Z,86.90
2018-04-02T23:57:52.863Z,87.50
